sensor_id;sensor_type;location;lat;lon;timestamp;pressure;altitude;pressure_sealevel;temperature;humidity
70141;BME280;57508;43.086;0.136;2022-10-31T07:08:58;95728.78;;;18.86;42.95
70141;BME280;57508;43.086;0.136;2022-10-31T07:11:23;95731.91;;;19.93;41.53
70141;BME280;57508;43.086;0.136;2022-10-31T07:13:49;95732.81;;;20.34;40.45
70141;BME280;57508;43.086;0.136;2022-10-31T07:16:14;95730.69;;;20.59;40.71
70141;BME280;57508;43.086;0.136;2022-10-31T07:18:40;95735.53;;;20.17;41.31
70141;BME280;57508;43.086;0.136;2022-10-31T07:21:05;95732.00;;;21.05;39.59
70141;BME280;57508;43.086;0.136;2022-10-31T07:23:31;95734.66;;;21.25;39.56
70141;BME280;57508;43.086;0.136;2022-10-31T07:25:57;95734.75;;;21.52;39.00
70141;BME280;57508;43.086;0.136;2022-10-31T07:28:24;95734.72;;;21.72;38.45
70141;BME280;57508;43.086;0.136;2022-10-31T07:30:53;95725.66;;;21.80;37.73
70141;BME280;57508;43.086;0.136;2022-10-31T07:33:19;95729.38;;;21.99;37.08
70141;BME280;57508;43.086;0.136;2022-10-31T07:35:45;95740.25;;;22.06;36.84
70141;BME280;57508;43.086;0.136;2022-10-31T07:38:12;95740.22;;;22.02;36.44
70141;BME280;57508;43.086;0.136;2022-10-31T07:40:38;95733.50;;;21.92;36.53
70141;BME280;57508;43.086;0.136;2022-10-31T07:43:08;95719.03;;;22.28;35.49
70141;BME280;57508;43.086;0.136;2022-10-31T07:45:35;95725.84;;;22.49;36.05
70141;BME280;57508;43.086;0.136;2022-10-31T07:48:00;95718.94;;;22.20;37.18
70141;BME280;57508;43.086;0.136;2022-10-31T07:50:31;95710.97;;;22.01;37.56
70141;BME280;57508;43.086;0.136;2022-10-31T07:53:09;95704.84;;;22.31;36.45
70141;BME280;57508;43.086;0.136;2022-10-31T07:55:35;95713.19;;;22.80;35.54
70141;BME280;57508;43.086;0.136;2022-10-31T07:58:07;95711.38;;;23.26;35.54
70141;BME280;57508;43.086;0.136;2022-10-31T08:00:35;95717.00;;;23.09;35.81
70141;BME280;57508;43.086;0.136;2022-10-31T08:05:28;95701.38;;;23.68;34.80
70141;BME280;57508;43.086;0.136;2022-10-31T08:07:54;95706.50;;;23.01;35.70
70141;BME280;57508;43.086;0.136;2022-10-31T08:10:21;95698.63;;;23.60;35.30
70141;BME280;57508;43.086;0.136;2022-10-31T08:12:46;95714.81;;;23.60;35.77
70141;BME280;57508;43.086;0.136;2022-10-31T08:15:12;95711.69;;;23.55;36.17
70141;BME280;57508;43.086;0.136;2022-10-31T08:17:38;95714.56;;;23.35;36.16
70141;BME280;57508;43.086;0.136;2022-10-31T08:20:04;95717.06;;;23.55;36.28
70141;BME280;57508;43.086;0.136;2022-10-31T08:22:30;95725.75;;;23.79;36.00
70141;BME280;57508;43.086;0.136;2022-10-31T08:24:56;95735.97;;;24.04;35.06
70141;BME280;57508;43.086;0.136;2022-10-31T08:27:21;95738.66;;;24.04;35.91
70141;BME280;57508;43.086;0.136;2022-10-31T08:29:47;95734.72;;;23.90;36.30
70141;BME280;57508;43.086;0.136;2022-10-31T08:32:12;95737.47;;;23.52;37.50
70141;BME280;57508;43.086;0.136;2022-10-31T08:34:38;95736.16;;;23.01;38.54
70141;BME280;57508;43.086;0.136;2022-10-31T08:37:03;95727.56;;;23.64;37.09
70141;BME280;57508;43.086;0.136;2022-10-31T08:39:29;95722.97;;;23.68;37.66
70141;BME280;57508;43.086;0.136;2022-10-31T08:41:54;95728.28;;;23.57;37.30
70141;BME280;57508;43.086;0.136;2022-10-31T08:44:20;95727.31;;;23.80;36.70
70141;BME280;57508;43.086;0.136;2022-10-31T08:46:45;95726.31;;;23.54;36.86
70141;BME280;57508;43.086;0.136;2022-10-31T08:49:10;95723.91;;;23.87;36.40
70141;BME280;57508;43.086;0.136;2022-10-31T08:51:37;95730.41;;;24.31;36.27
70141;BME280;57508;43.086;0.136;2022-10-31T08:54:02;95729.19;;;24.25;36.11
70141;BME280;57508;43.086;0.136;2022-10-31T08:56:28;95723.09;;;25.28;35.51
70141;BME280;57508;43.086;0.136;2022-10-31T08:58:53;95717.00;;;25.89;34.09
70141;BME280;57508;43.086;0.136;2022-10-31T09:01:19;95708.84;;;26.15;32.97
70141;BME280;57508;43.086;0.136;2022-10-31T09:03:44;95701.03;;;26.60;31.41
70141;BME280;57508;43.086;0.136;2022-10-31T09:06:10;95707.75;;;27.16;30.85
70141;BME280;57508;43.086;0.136;2022-10-31T09:08:36;95704.94;;;27.91;29.84
70141;BME280;57508;43.086;0.136;2022-10-31T09:11:02;95699.56;;;27.84;29.71
70141;BME280;57508;43.086;0.136;2022-10-31T09:13:28;95705.06;;;27.76;30.15
70141;BME280;57508;43.086;0.136;2022-10-31T09:15:56;95703.69;;;26.71;30.30
70141;BME280;57508;43.086;0.136;2022-10-31T09:18:23;95701.03;;;26.57;29.87
70141;BME280;57508;43.086;0.136;2022-10-31T09:20:49;95694.34;;;27.51;28.96
70141;BME280;57508;43.086;0.136;2022-10-31T09:23:20;95691.25;;;27.52;28.70
70141;BME280;57508;43.086;0.136;2022-10-31T09:25:47;95693.88;;;27.67;29.29
70141;BME280;57508;43.086;0.136;2022-10-31T09:28:14;95696.53;;;27.74;30.43
70141;BME280;57508;43.086;0.136;2022-10-31T09:30:40;95691.97;;;26.93;29.37
70141;BME280;57508;43.086;0.136;2022-10-31T09:33:10;95699.94;;;27.33;29.19
70141;BME280;57508;43.086;0.136;2022-10-31T09:35:37;95694.78;;;27.46;29.41
70141;BME280;57508;43.086;0.136;2022-10-31T09:38:05;95698.50;;;27.70;30.22
70141;BME280;57508;43.086;0.136;2022-10-31T09:40:35;95694.91;;;27.84;30.54
70141;BME280;57508;43.086;0.136;2022-10-31T09:43:46;95697.81;;;27.59;30.87
70141;BME280;57508;43.086;0.136;2022-10-31T09:45:59;95695.47;;;28.07;29.94
70141;BME280;57508;43.086;0.136;2022-10-31T09:51:17;95689.63;;;28.08;29.67
70141;BME280;57508;43.086;0.136;2022-10-31T09:53:53;95685.66;;;28.20;29.36
70141;BME280;57508;43.086;0.136;2022-10-31T09:56:20;95680.50;;;28.33;30.20
70141;BME280;57508;43.086;0.136;2022-10-31T09:58:50;95678.41;;;28.79;29.58
70141;BME280;57508;43.086;0.136;2022-10-31T10:04:22;95661.06;;;29.28;29.66
70141;BME280;57508;43.086;0.136;2022-10-31T10:06:53;95660.09;;;29.15;30.15
70141;BME280;57508;43.086;0.136;2022-10-31T10:09:25;95657.06;;;29.09;30.17
70141;BME280;57508;43.086;0.136;2022-10-31T10:12:13;95681.06;;;29.14;30.01
70141;BME280;57508;43.086;0.136;2022-10-31T10:14:57;95684.78;;;29.28;30.35
70141;BME280;57508;43.086;0.136;2022-10-31T10:17:35;95677.09;;;29.23;30.36
70141;BME280;57508;43.086;0.136;2022-10-31T10:25:16;95671.78;;;28.11;30.49
70141;BME280;57508;43.086;0.136;2022-10-31T10:28:00;95666.41;;;28.03;28.87
70141;BME280;57508;43.086;0.136;2022-10-31T10:30:39;95654.69;;;28.80;28.41
70141;BME280;57508;43.086;0.136;2022-10-31T10:36:00;95649.91;;;27.83;29.38
70141;BME280;57508;43.086;0.136;2022-10-31T10:38:51;95637.06;;;28.92;29.83
70141;BME280;57508;43.086;0.136;2022-10-31T10:41:21;95625.47;;;29.43;29.01
70141;BME280;57508;43.086;0.136;2022-10-31T10:43:49;95631.72;;;29.40;29.06
70141;BME280;57508;43.086;0.136;2022-10-31T10:49:19;95626.75;;;29.11;29.58
70141;BME280;57508;43.086;0.136;2022-10-31T10:59:55;95631.19;;;29.97;28.68
70141;BME280;57508;43.086;0.136;2022-10-31T11:02:25;95630.84;;;30.15;28.93
70141;BME280;57508;43.086;0.136;2022-10-31T11:04:54;95632.88;;;30.11;28.73
70141;BME280;57508;43.086;0.136;2022-10-31T11:07:20;95634.06;;;30.10;28.72
70141;BME280;57508;43.086;0.136;2022-10-31T11:09:46;95630.25;;;30.27;27.83
70141;BME280;57508;43.086;0.136;2022-10-31T11:12:30;95636.09;;;30.05;28.73
70141;BME280;57508;43.086;0.136;2022-10-31T11:15:05;95637.72;;;30.23;30.16
70141;BME280;57508;43.086;0.136;2022-10-31T11:17:35;95636.41;;;30.32;30.26
70141;BME280;57508;43.086;0.136;2022-10-31T11:22:43;95635.78;;;30.44;31.35
70141;BME280;57508;43.086;0.136;2022-10-31T11:25:25;95625.56;;;30.28;29.65
70141;BME280;57508;43.086;0.136;2022-10-31T11:28:05;95620.91;;;30.28;30.20
70141;BME280;57508;43.086;0.136;2022-10-31T11:30:46;95619.09;;;30.42;31.06
70141;BME280;57508;43.086;0.136;2022-10-31T11:33:26;95623.06;;;30.37;30.98
70141;BME280;57508;43.086;0.136;2022-10-31T11:35:54;95611.78;;;30.15;30.99
70141;BME280;57508;43.086;0.136;2022-10-31T11:38:22;95609.63;;;30.47;30.94
70141;BME280;57508;43.086;0.136;2022-10-31T11:41:13;95601.38;;;30.10;30.87
70141;BME280;57508;43.086;0.136;2022-10-31T11:43:38;95603.00;;;30.27;31.87
70141;BME280;57508;43.086;0.136;2022-10-31T11:46:19;95606.09;;;30.29;30.21
70141;BME280;57508;43.086;0.136;2022-10-31T11:48:48;95598.28;;;30.48;30.36
70141;BME280;57508;43.086;0.136;2022-10-31T11:51:24;95593.22;;;30.50;30.61
70141;BME280;57508;43.086;0.136;2022-10-31T11:53:52;95582.09;;;30.41;30.58
70141;BME280;57508;43.086;0.136;2022-10-31T11:56:18;95601.69;;;30.15;30.71
70141;BME280;57508;43.086;0.136;2022-10-31T11:59:01;95605.59;;;30.35;29.89
70141;BME280;57508;43.086;0.136;2022-10-31T12:01:29;95598.03;;;30.42;30.21
70141;BME280;57508;43.086;0.136;2022-10-31T12:04:11;95590.97;;;30.45;30.08
70141;BME280;57508;43.086;0.136;2022-10-31T12:06:42;95586.50;;;30.55;29.56
70141;BME280;57508;43.086;0.136;2022-10-31T12:19:28;95592.56;;;30.42;29.77
70141;BME280;57508;43.086;0.136;2022-10-31T12:22:48;95593.84;;;30.38;31.21
70141;BME280;57508;43.086;0.136;2022-10-31T12:46:24;95574.22;;;31.00;30.06
70141;BME280;57508;43.086;0.136;2022-10-31T12:57:39;95561.19;;;31.41;29.71
70141;BME280;57508;43.086;0.136;2022-10-31T13:00:14;95552.31;;;31.37;30.47
70141;BME280;57508;43.086;0.136;2022-10-31T13:02:54;95557.50;;;31.15;31.24
70141;BME280;57508;43.086;0.136;2022-10-31T13:10:33;95547.13;;;31.10;30.75
70141;BME280;57508;43.086;0.136;2022-10-31T13:13:06;95547.78;;;30.97;30.56
70141;BME280;57508;43.086;0.136;2022-10-31T13:15:53;95546.94;;;31.00;32.02
70141;BME280;57508;43.086;0.136;2022-10-31T13:20:55;95560.84;;;30.69;32.38
70141;BME280;57508;43.086;0.136;2022-10-31T13:25:52;95571.31;;;30.54;32.69
70141;BME280;57508;43.086;0.136;2022-10-31T13:28:28;95582.31;;;29.17;27.99
70141;BME280;57508;43.086;0.136;2022-10-31T13:30:56;95573.06;;;29.39;24.84
70141;BME280;57508;43.086;0.136;2022-10-31T13:39:36;95577.69;;;30.84;22.70
70141;BME280;57508;43.086;0.136;2022-10-31T13:44:35;95562.78;;;31.22;23.11
70141;BME280;57508;43.086;0.136;2022-10-31T13:47:02;95555.81;;;31.21;22.01
70141;BME280;57508;43.086;0.136;2022-10-31T13:52:24;95549.47;;;31.87;21.48
70141;BME280;57508;43.086;0.136;2022-10-31T13:54:51;95547.16;;;31.86;22.05
70141;BME280;57508;43.086;0.136;2022-10-31T13:57:41;95552.38;;;31.97;22.33
70141;BME280;57508;43.086;0.136;2022-10-31T14:00:24;95561.09;;;31.45;22.77
70141;BME280;57508;43.086;0.136;2022-10-31T14:02:53;95558.00;;;31.89;23.44
70141;BME280;57508;43.086;0.136;2022-10-31T14:07:54;95561.75;;;31.16;23.71
70141;BME280;57508;43.086;0.136;2022-10-31T14:13:43;95567.88;;;31.70;25.00
70141;BME280;57508;43.086;0.136;2022-10-31T14:16:25;95578.88;;;31.66;24.96
70141;BME280;57508;43.086;0.136;2022-10-31T14:18:58;95587.50;;;31.48;25.52
70141;BME280;57508;43.086;0.136;2022-10-31T14:23:53;95588.38;;;31.28;24.62
70141;BME280;57508;43.086;0.136;2022-10-31T14:29:39;95592.84;;;30.68;24.72
70141;BME280;57508;43.086;0.136;2022-10-31T14:34:53;95598.50;;;30.58;24.52
70141;BME280;57508;43.086;0.136;2022-10-31T14:50:59;95594.28;;;30.16;25.33
70141;BME280;57508;43.086;0.136;2022-10-31T14:53:34;95590.28;;;30.00;25.20
70141;BME280;57508;43.086;0.136;2022-10-31T14:56:01;95606.63;;;30.00;24.96
70141;BME280;57508;43.086;0.136;2022-10-31T14:58:37;95604.03;;;30.13;24.34
70141;BME280;57508;43.086;0.136;2022-10-31T15:01:04;95603.47;;;30.02;24.88
70141;BME280;57508;43.086;0.136;2022-10-31T15:03:33;95607.28;;;30.28;23.58
70141;BME280;57508;43.086;0.136;2022-10-31T15:06:04;95600.88;;;29.74;25.10
70141;BME280;57508;43.086;0.136;2022-10-31T15:08:41;95610.78;;;29.85;25.02
70141;BME280;57508;43.086;0.136;2022-10-31T15:13:42;95613.28;;;30.20;24.43
70141;BME280;57508;43.086;0.136;2022-10-31T15:16:09;95617.28;;;30.11;24.52
70141;BME280;57508;43.086;0.136;2022-10-31T15:18:44;95622.66;;;29.74;25.27
70141;BME280;57508;43.086;0.136;2022-10-31T15:21:15;95642.16;;;29.17;26.56
70141;BME280;57508;43.086;0.136;2022-10-31T15:23:42;95623.44;;;29.23;27.24
70141;BME280;57508;43.086;0.136;2022-10-31T15:26:15;95628.66;;;28.83;27.79
70141;BME280;57508;43.086;0.136;2022-10-31T15:28:42;95620.19;;;29.32;26.50
70141;BME280;57508;43.086;0.136;2022-10-31T15:31:14;95615.66;;;29.73;25.49
70141;BME280;57508;43.086;0.136;2022-10-31T15:33:41;95634.63;;;29.57;27.38
70141;BME280;57508;43.086;0.136;2022-10-31T15:36:18;95637.88;;;29.44;27.04
70141;BME280;57508;43.086;0.136;2022-10-31T15:38:44;95637.50;;;29.42;27.97
70141;BME280;57508;43.086;0.136;2022-10-31T15:43:48;95637.22;;;29.12;28.70
70141;BME280;57508;43.086;0.136;2022-10-31T15:46:13;95638.38;;;29.11;28.91
70141;BME280;57508;43.086;0.136;2022-10-31T15:48:44;95643.97;;;29.00;29.23
70141;BME280;57508;43.086;0.136;2022-10-31T15:51:11;95638.72;;;28.86;29.23
70141;BME280;57508;43.086;0.136;2022-10-31T15:53:48;95642.69;;;28.77;29.23
70141;BME280;57508;43.086;0.136;2022-10-31T15:56:25;95653.72;;;28.32;30.09
70141;BME280;57508;43.086;0.136;2022-10-31T15:58:53;95647.13;;;28.33;30.73
70141;BME280;57508;43.086;0.136;2022-10-31T16:01:28;95663.84;;;28.31;30.01
70141;BME280;57508;43.086;0.136;2022-10-31T16:04:20;95655.69;;;27.89;31.53
70141;BME280;57508;43.086;0.136;2022-10-31T16:06:58;95651.47;;;27.84;31.63
70141;BME280;57508;43.086;0.136;2022-10-31T16:09:24;95652.22;;;27.35;32.96
70141;BME280;57508;43.086;0.136;2022-10-31T16:11:50;95656.84;;;26.71;34.32
70141;BME280;57508;43.086;0.136;2022-10-31T16:14:19;95658.19;;;27.12;33.64
70141;BME280;57508;43.086;0.136;2022-10-31T16:16:52;95659.03;;;27.01;33.74
70141;BME280;57508;43.086;0.136;2022-10-31T16:22:19;95662.34;;;27.27;32.81
70141;BME280;57508;43.086;0.136;2022-10-31T16:24:51;95658.41;;;27.36;32.61
70141;BME280;57508;43.086;0.136;2022-10-31T16:27:25;95656.59;;;27.18;32.62
70141;BME280;57508;43.086;0.136;2022-10-31T16:29:55;95663.72;;;26.97;33.50
70141;BME280;57508;43.086;0.136;2022-10-31T16:35:18;95655.63;;;26.79;33.51
70141;BME280;57508;43.086;0.136;2022-10-31T16:37:44;95648.88;;;26.16;34.20
70141;BME280;57508;43.086;0.136;2022-10-31T16:40:13;95655.06;;;26.13;33.95
70141;BME280;57508;43.086;0.136;2022-10-31T16:42:40;95650.34;;;26.46;33.32
70141;BME280;57508;43.086;0.136;2022-10-31T16:45:06;95663.81;;;26.72;33.72
70141;BME280;57508;43.086;0.136;2022-10-31T16:47:32;95673.28;;;26.09;35.45
70141;BME280;57508;43.086;0.136;2022-10-31T16:49:58;95687.94;;;26.33;34.59
70141;BME280;57508;43.086;0.136;2022-10-31T16:52:25;95673.91;;;26.64;34.20
70141;BME280;57508;43.086;0.136;2022-10-31T16:54:50;95678.94;;;26.66;33.78
70141;BME280;57508;43.086;0.136;2022-10-31T16:57:26;95701.00;;;26.68;34.15
70141;BME280;57508;43.086;0.136;2022-10-31T16:59:52;95703.34;;;26.62;34.47
70141;BME280;57508;43.086;0.136;2022-10-31T17:02:21;95695.25;;;26.55;34.37
70141;BME280;57508;43.086;0.136;2022-10-31T17:04:47;95691.75;;;26.50;34.49
70141;BME280;57508;43.086;0.136;2022-10-31T17:07:12;95695.66;;;26.46;33.70
70141;BME280;57508;43.086;0.136;2022-10-31T17:09:38;95692.56;;;26.47;33.62
70141;BME280;57508;43.086;0.136;2022-10-31T17:12:05;95706.47;;;26.53;33.91
70141;BME280;57508;43.086;0.136;2022-10-31T17:14:32;95707.25;;;26.50;33.56
70141;BME280;57508;43.086;0.136;2022-10-31T17:16:58;95709.56;;;26.51;33.46
70141;BME280;57508;43.086;0.136;2022-10-31T17:19:25;95719.22;;;26.63;33.79
70141;BME280;57508;43.086;0.136;2022-10-31T17:21:50;95727.38;;;26.53;34.28
70141;BME280;57508;43.086;0.136;2022-10-31T17:24:16;95722.72;;;26.53;33.39
70141;BME280;57508;43.086;0.136;2022-10-31T17:26:42;95741.31;;;26.55;33.42
70141;BME280;57508;43.086;0.136;2022-10-31T17:29:07;95735.13;;;26.47;33.74
70141;BME280;57508;43.086;0.136;2022-10-31T17:31:34;95735.13;;;26.43;34.65
70141;BME280;57508;43.086;0.136;2022-10-31T17:34:01;95738.63;;;26.33;34.21
70141;BME280;57508;43.086;0.136;2022-10-31T17:36:30;95746.53;;;24.91;36.35
70141;BME280;57508;43.086;0.136;2022-10-31T17:38:55;95740.63;;;24.63;37.41
70141;BME280;57508;43.086;0.136;2022-10-31T17:41:21;95746.38;;;25.76;35.19
70141;BME280;57508;43.086;0.136;2022-10-31T17:43:46;95750.22;;;25.93;35.39
70141;BME280;57508;43.086;0.136;2022-10-31T17:46:12;95749.84;;;26.06;34.74
70141;BME280;57508;43.086;0.136;2022-10-31T17:48:37;95744.06;;;25.89;35.57
70141;BME280;57508;43.086;0.136;2022-10-31T17:51:04;95755.63;;;25.53;36.43
70141;BME280;57508;43.086;0.136;2022-10-31T17:53:31;95768.75;;;25.51;36.42
70141;BME280;57508;43.086;0.136;2022-10-31T17:58:27;95758.75;;;25.73;36.12
70141;BME280;57508;43.086;0.136;2022-10-31T18:00:52;95768.31;;;25.31;36.34
70141;BME280;57508;43.086;0.136;2022-10-31T18:03:17;95764.47;;;25.46;36.59
70141;BME280;57508;43.086;0.136;2022-10-31T18:05:54;95774.03;;;25.11;36.96
70141;BME280;57508;43.086;0.136;2022-10-31T18:08:23;95771.31;;;25.07;36.81
70141;BME280;57508;43.086;0.136;2022-10-31T18:10:49;95777.56;;;25.30;36.89
70141;BME280;57508;43.086;0.136;2022-10-31T18:13:14;95771.19;;;24.82;37.57
70141;BME280;57508;43.086;0.136;2022-10-31T18:15:40;95771.22;;;23.77;39.71
70141;BME280;57508;43.086;0.136;2022-10-31T18:18:05;95764.97;;;24.74;38.27
70141;BME280;57508;43.086;0.136;2022-10-31T18:20:32;95776.28;;;24.27;37.69
70141;BME280;57508;43.086;0.136;2022-10-31T18:22:57;95773.66;;;25.12;36.60
70141;BME280;57508;43.086;0.136;2022-10-31T18:25:23;95784.59;;;25.53;35.71
70141;BME280;57508;43.086;0.136;2022-10-31T18:27:48;95788.50;;;25.66;36.06
70141;BME280;57508;43.086;0.136;2022-10-31T18:30:14;95795.50;;;25.78;35.13
70141;BME280;57508;43.086;0.136;2022-10-31T18:32:39;95790.06;;;25.67;36.08
70141;BME280;57508;43.086;0.136;2022-10-31T18:35:05;95791.59;;;25.61;36.12
70141;BME280;57508;43.086;0.136;2022-10-31T18:37:30;95797.78;;;25.61;35.63
70141;BME280;57508;43.086;0.136;2022-10-31T18:39:56;95801.66;;;25.68;35.54
70141;BME280;57508;43.086;0.136;2022-10-31T18:42:21;95800.09;;;25.63;35.33
70141;BME280;57508;43.086;0.136;2022-10-31T18:44:46;95806.53;;;24.55;36.98
70141;BME280;57508;43.086;0.136;2022-10-31T18:47:12;95791.41;;;25.14;36.21
70141;BME280;57508;43.086;0.136;2022-10-31T18:49:37;95803.91;;;25.51;36.20
70141;BME280;57508;43.086;0.136;2022-10-31T18:52:03;95806.16;;;25.31;36.97
70141;BME280;57508;43.086;0.136;2022-10-31T18:54:28;95811.59;;;25.31;36.55
70141;BME280;57508;43.086;0.136;2022-10-31T18:56:54;95812.69;;;25.22;37.11
70141;BME280;57508;43.086;0.136;2022-10-31T18:59:20;95810.88;;;24.70;37.64
70141;BME280;57508;43.086;0.136;2022-10-31T19:01:45;95810.94;;;23.76;40.20
70141;BME280;57508;43.086;0.136;2022-10-31T19:04:11;95804.00;;;24.20;39.43
70141;BME280;57508;43.086;0.136;2022-10-31T19:06:37;95824.69;;;24.58;37.74
70141;BME280;57508;43.086;0.136;2022-10-31T19:09:05;95828.66;;;24.19;37.97
70141;BME280;57508;43.086;0.136;2022-10-31T19:11:33;95831.91;;;24.95;36.93
70141;BME280;57508;43.086;0.136;2022-10-31T19:13:59;95841.41;;;24.78;37.66
70141;BME280;57508;43.086;0.136;2022-10-31T19:16:26;95848.50;;;24.97;36.60
70141;BME280;57508;43.086;0.136;2022-10-31T19:18:56;95850.94;;;25.17;36.76
70141;BME280;57508;43.086;0.136;2022-10-31T19:21:22;95861.41;;;25.30;36.18
70141;BME280;57508;43.086;0.136;2022-10-31T19:23:51;95867.78;;;24.92;37.67
70141;BME280;57508;43.086;0.136;2022-10-31T19:26:17;95863.06;;;24.82;37.74
70141;BME280;57508;43.086;0.136;2022-10-31T19:28:42;95865.94;;;24.51;38.26
70141;BME280;57508;43.086;0.136;2022-10-31T19:31:09;95860.88;;;24.98;37.29
70141;BME280;57508;43.086;0.136;2022-10-31T19:33:34;95884.09;;;25.07;36.67
70141;BME280;57508;43.086;0.136;2022-10-31T19:36:04;95884.88;;;25.11;36.56
70141;BME280;57508;43.086;0.136;2022-10-31T19:38:39;95881.84;;;25.16;36.72
70141;BME280;57508;43.086;0.136;2022-10-31T19:41:25;95891.56;;;25.32;36.52
70141;BME280;57508;43.086;0.136;2022-10-31T19:43:52;95903.16;;;25.36;36.14
70141;BME280;57508;43.086;0.136;2022-10-31T19:46:19;95896.47;;;25.15;36.72
70141;BME280;57508;43.086;0.136;2022-10-31T19:48:45;95903.09;;;24.65;38.02
70141;BME280;57508;43.086;0.136;2022-10-31T19:51:13;95900.34;;;24.13;38.95
70141;BME280;57508;43.086;0.136;2022-10-31T19:53:39;95905.53;;;24.81;37.30
70141;BME280;57508;43.086;0.136;2022-10-31T19:56:12;95905.53;;;24.81;38.02
70141;BME280;57508;43.086;0.136;2022-10-31T19:58:38;95906.03;;;24.45;38.79
70141;BME280;57508;43.086;0.136;2022-10-31T20:01:15;95906.53;;;24.13;38.84
70141;BME280;57508;43.086;0.136;2022-10-31T20:03:42;95900.47;;;24.27;39.03
70141;BME280;57508;43.086;0.136;2022-10-31T20:06:28;95900.88;;;23.91;39.87
70141;BME280;57508;43.086;0.136;2022-10-31T20:08:55;95915.13;;;24.26;38.05
70141;BME280;57508;43.086;0.136;2022-10-31T20:11:23;95909.38;;;24.28;38.23
70141;BME280;57508;43.086;0.136;2022-10-31T20:13:49;95910.94;;;24.32;38.03
70141;BME280;57508;43.086;0.136;2022-10-31T20:16:15;95910.66;;;24.45;37.55
70141;BME280;57508;43.086;0.136;2022-10-31T20:18:41;95913.91;;;24.20;38.21
70141;BME280;57508;43.086;0.136;2022-10-31T20:21:10;95911.72;;;23.95;38.70
70141;BME280;57508;43.086;0.136;2022-10-31T20:23:36;95918.91;;;24.18;38.13
70141;BME280;57508;43.086;0.136;2022-10-31T20:26:03;95925.34;;;24.47;37.70
70141;BME280;57508;43.086;0.136;2022-10-31T20:28:29;95926.31;;;23.29;40.36
70141;BME280;57508;43.086;0.136;2022-10-31T20:30:55;95926.88;;;23.72;39.83
70141;BME280;57508;43.086;0.136;2022-10-31T20:33:20;95929.03;;;24.28;38.38
70141;BME280;57508;43.086;0.136;2022-10-31T20:35:46;95933.09;;;23.77;39.34
70141;BME280;57508;43.086;0.136;2022-10-31T20:38:12;95927.13;;;23.94;38.91
70141;BME280;57508;43.086;0.136;2022-10-31T20:40:37;95931.41;;;24.37;37.81
70141;BME280;57508;43.086;0.136;2022-10-31T20:43:03;95943.00;;;24.38;37.48
70141;BME280;57508;43.086;0.136;2022-10-31T20:45:29;95943.56;;;24.58;37.01
70141;BME280;57508;43.086;0.136;2022-10-31T20:47:55;95957.97;;;24.28;38.01
70141;BME280;57508;43.086;0.136;2022-10-31T20:50:21;95957.81;;;24.55;37.53
70141;BME280;57508;43.086;0.136;2022-10-31T20:52:47;95960.34;;;24.82;37.13
70141;BME280;57508;43.086;0.136;2022-10-31T20:55:13;95961.97;;;24.90;36.69
70141;BME280;57508;43.086;0.136;2022-10-31T20:57:38;95964.53;;;24.72;37.20
70141;BME280;57508;43.086;0.136;2022-10-31T21:00:05;95968.66;;;24.17;37.86
70141;BME280;57508;43.086;0.136;2022-10-31T21:02:31;95973.97;;;23.79;38.79
